sensor_id;sensor_type;location;lat;lon;timestamp;P1;durP1;ratioP1;P2;durP2;ratioP2
37284;SDS011;23172;53.550;9.964;2022-10-17T00:00:26;7.30;;;5.00;;
37284;SDS011;23172;53.550;9.964;2022-10-17T00:05:28;6.70;;;3.50;;
37284;SDS011;23172;53.550;9.964;2022-10-17T00:10:33;4.07;;;3.30;;
37284;SDS011;23172;53.550;9.964;2022-10-17T00:15:37;4.82;;;3.53;;
37284;SDS011;23172;53.550;9.964;2022-10-17T00:20:38;3.80;;;2.93;;
37284;SDS011;23172;53.550;9.964;2022-10-17T00:25:40;7.18;;;4.20;;
37284;SDS011;23172;53.550;9.964;2022-10-17T00:30:45;4.20;;;3.42;;
37284;SDS011;23172;53.550;9.964;2022-10-17T00:36:03;4.18;;;3.60;;
37284;SDS011;23172;53.550;9.964;2022-10-17T00:41:07;3.80;;;3.50;;
37284;SDS011;23172;53.550;9.964;2022-10-17T00:46:11;4.35;;;3.70;;
37284;SDS011;23172;53.550;9.964;2022-10-17T00:51:12;5.10;;;4.37;;
37284;SDS011;23172;53.550;9.964;2022-10-17T00:56:15;4.40;;;4.00;;
37284;SDS011;23172;53.550;9.964;2022-10-17T01:01:20;6.45;;;4.00;;
37284;SDS011;23172;53.550;9.964;2022-10-17T01:06:22;6.60;;;4.20;;
37284;SDS011;23172;53.550;9.964;2022-10-17T01:11:27;4.37;;;3.90;;
37284;SDS011;23172;53.550;9.964;2022-10-17T01:16:38;4.97;;;4.03;;
37284;SDS011;23172;53.550;9.964;2022-10-17T01:21:48;4.50;;;4.00;;
37284;SDS011;23172;53.550;9.964;2022-10-17T01:27:07;4.80;;;3.70;;
37284;SDS011;23172;53.550;9.964;2022-10-17T01:32:28;4.60;;;3.63;;
37284;SDS011;23172;53.550;9.964;2022-10-17T01:37:36;4.65;;;3.47;;
37284;SDS011;23172;53.550;9.964;2022-10-17T01:42:44;3.80;;;3.13;;
37284;SDS011;23172;53.550;9.964;2022-10-17T01:47:54;3.55;;;3.10;;
37284;SDS011;23172;53.550;9.964;2022-10-17T01:53:00;4.30;;;3.50;;
37284;SDS011;23172;53.550;9.964;2022-10-17T01:58:06;4.47;;;3.40;;
37284;SDS011;23172;53.550;9.964;2022-10-17T02:03:14;3.47;;;3.17;;
37284;SDS011;23172;53.550;9.964;2022-10-17T02:08:26;3.83;;;3.13;;
37284;SDS011;23172;53.550;9.964;2022-10-17T02:13:33;4.85;;;3.38;;
37284;SDS011;23172;53.550;9.964;2022-10-17T02:18:49;4.15;;;3.33;;
37284;SDS011;23172;53.550;9.964;2022-10-17T02:24:03;4.90;;;3.50;;
37284;SDS011;23172;53.550;9.964;2022-10-17T02:29:12;4.10;;;3.60;;
37284;SDS011;23172;53.550;9.964;2022-10-17T02:34:20;4.90;;;3.40;;
37284;SDS011;23172;53.550;9.964;2022-10-17T02:39:26;4.05;;;3.17;;
37284;SDS011;23172;53.550;9.964;2022-10-17T02:44:29;4.25;;;2.80;;
37284;SDS011;23172;53.550;9.964;2022-10-17T02:49:34;3.72;;;3.05;;
37284;SDS011;23172;53.550;9.964;2022-10-17T02:54:39;6.45;;;3.10;;
37284;SDS011;23172;53.550;9.964;2022-10-17T02:59:45;3.28;;;2.90;;
37284;SDS011;23172;53.550;9.964;2022-10-17T03:04:50;3.22;;;2.88;;
37284;SDS011;23172;53.550;9.964;2022-10-17T03:09:51;3.50;;;3.00;;
37284;SDS011;23172;53.550;9.964;2022-10-17T03:14:53;4.15;;;3.33;;
37284;SDS011;23172;53.550;9.964;2022-10-17T03:19:56;3.22;;;2.70;;
37284;SDS011;23172;53.550;9.964;2022-10-17T03:24:58;4.10;;;2.58;;
37284;SDS011;23172;53.550;9.964;2022-10-17T03:30:00;2.97;;;2.50;;
37284;SDS011;23172;53.550;9.964;2022-10-17T03:35:03;2.72;;;2.30;;
37284;SDS011;23172;53.550;9.964;2022-10-17T03:40:05;2.55;;;2.35;;
37284;SDS011;23172;53.550;9.964;2022-10-17T03:45:08;3.65;;;2.40;;
37284;SDS011;23172;53.550;9.964;2022-10-17T03:50:11;3.38;;;2.60;;
37284;SDS011;23172;53.550;9.964;2022-10-17T03:55:14;3.13;;;2.67;;
37284;SDS011;23172;53.550;9.964;2022-10-17T04:00:16;3.88;;;3.00;;
37284;SDS011;23172;53.550;9.964;2022-10-17T04:05:19;4.65;;;3.13;;
37284;SDS011;23172;53.550;9.964;2022-10-17T04:10:21;3.28;;;2.67;;
37284;SDS011;23172;53.550;9.964;2022-10-17T04:15:22;3.40;;;2.50;;
37284;SDS011;23172;53.550;9.964;2022-10-17T04:20:25;2.53;;;2.37;;
37284;SDS011;23172;53.550;9.964;2022-10-17T04:25:27;4.70;;;2.90;;
37284;SDS011;23172;53.550;9.964;2022-10-17T04:30:29;3.03;;;2.63;;
37284;SDS011;23172;53.550;9.964;2022-10-17T04:35:32;3.80;;;2.50;;
37284;SDS011;23172;53.550;9.964;2022-10-17T04:40:35;4.72;;;3.20;;
37284;SDS011;23172;53.550;9.964;2022-10-17T04:45:36;2.70;;;2.50;;
37284;SDS011;23172;53.550;9.964;2022-10-17T04:50:39;2.73;;;2.53;;
37284;SDS011;23172;53.550;9.964;2022-10-17T04:55:41;4.32;;;2.60;;
37284;SDS011;23172;53.550;9.964;2022-10-17T05:00:43;3.20;;;2.57;;
37284;SDS011;23172;53.550;9.964;2022-10-17T05:05:47;2.75;;;2.45;;
37284;SDS011;23172;53.550;9.964;2022-10-17T05:10:48;3.77;;;2.97;;
37284;SDS011;23172;53.550;9.964;2022-10-17T05:15:50;4.10;;;3.22;;
37284;SDS011;23172;53.550;9.964;2022-10-17T05:20:53;3.80;;;2.72;;
37284;SDS011;23172;53.550;9.964;2022-10-17T05:25:55;4.17;;;3.60;;
37284;SDS011;23172;53.550;9.964;2022-10-17T05:31:00;3.70;;;3.40;;
37284;SDS011;23172;53.550;9.964;2022-10-17T05:36:05;3.70;;;3.20;;
37284;SDS011;23172;53.550;9.964;2022-10-17T05:41:08;5.82;;;3.30;;
37284;SDS011;23172;53.550;9.964;2022-10-17T05:46:10;5.28;;;3.55;;
37284;SDS011;23172;53.550;9.964;2022-10-17T05:51:13;5.38;;;3.33;;
37284;SDS011;23172;53.550;9.964;2022-10-17T05:56:15;3.87;;;3.20;;
37284;SDS011;23172;53.550;9.964;2022-10-17T06:01:19;3.43;;;3.10;;
37284;SDS011;23172;53.550;9.964;2022-10-17T06:06:22;4.53;;;3.70;;
37284;SDS011;23172;53.550;9.964;2022-10-17T06:11:24;3.70;;;3.13;;
37284;SDS011;23172;53.550;9.964;2022-10-17T06:16:25;3.80;;;3.40;;
37284;SDS011;23172;53.550;9.964;2022-10-17T06:21:28;4.17;;;3.50;;
37284;SDS011;23172;53.550;9.964;2022-10-17T06:26:33;4.23;;;3.43;;
37284;SDS011;23172;53.550;9.964;2022-10-17T06:31:36;4.40;;;3.30;;
37284;SDS011;23172;53.550;9.964;2022-10-17T06:36:39;4.90;;;3.40;;
37284;SDS011;23172;53.550;9.964;2022-10-17T06:41:41;4.50;;;3.40;;
37284;SDS011;23172;53.550;9.964;2022-10-17T06:46:43;4.47;;;3.78;;
37284;SDS011;23172;53.550;9.964;2022-10-17T06:51:46;5.93;;;5.50;;
37284;SDS011;23172;53.550;9.964;2022-10-17T06:56:48;4.60;;;4.10;;
37284;SDS011;23172;53.550;9.964;2022-10-17T07:01:50;4.30;;;3.50;;
37284;SDS011;23172;53.550;9.964;2022-10-17T07:06:55;4.90;;;4.38;;
37284;SDS011;23172;53.550;9.964;2022-10-17T07:11:57;4.10;;;3.53;;
37284;SDS011;23172;53.550;9.964;2022-10-17T14:13:58;15.85;;;9.45;;
37284;SDS011;23172;53.550;9.964;2022-10-17T14:19:02;8.33;;;7.53;;
37284;SDS011;23172;53.550;9.964;2022-10-17T14:24:12;7.45;;;6.78;;
37284;SDS011;23172;53.550;9.964;2022-10-17T14:29:19;8.40;;;7.60;;
37284;SDS011;23172;53.550;9.964;2022-10-17T14:34:26;9.57;;;8.63;;
37284;SDS011;23172;53.550;9.964;2022-10-17T14:39:30;9.83;;;8.93;;
37284;SDS011;23172;53.550;9.964;2022-10-17T14:44:33;10.07;;;9.17;;
37284;SDS011;23172;53.550;9.964;2022-10-17T14:49:38;10.23;;;9.23;;
37284;SDS011;23172;53.550;9.964;2022-10-17T14:54:40;11.02;;;10.02;;
37284;SDS011;23172;53.550;9.964;2022-10-17T14:59:43;11.17;;;10.07;;
37284;SDS011;23172;53.550;9.964;2022-10-17T15:04:46;10.60;;;9.70;;
37284;SDS011;23172;53.550;9.964;2022-10-17T15:09:49;11.53;;;10.50;;
37284;SDS011;23172;53.550;9.964;2022-10-17T15:14:53;12.07;;;11.00;;
37284;SDS011;23172;53.550;9.964;2022-10-17T15:19:56;11.52;;;10.52;;
37284;SDS011;23172;53.550;9.964;2022-10-17T15:24:58;13.57;;;12.33;;
37284;SDS011;23172;53.550;9.964;2022-10-17T15:29:59;12.90;;;11.70;;
37284;SDS011;23172;53.550;9.964;2022-10-17T15:35:03;12.75;;;11.65;;
37284;SDS011;23172;53.550;9.964;2022-10-17T15:40:05;12.18;;;10.98;;
37284;SDS011;23172;53.550;9.964;2022-10-17T15:45:10;11.25;;;10.25;;
37284;SDS011;23172;53.550;9.964;2022-10-17T15:50:16;11.27;;;10.27;;
37284;SDS011;23172;53.550;9.964;2022-10-17T15:55:18;12.35;;;11.25;;
37284;SDS011;23172;53.550;9.964;2022-10-17T16:00:20;10.80;;;9.88;;
37284;SDS011;23172;53.550;9.964;2022-10-17T16:05:25;11.90;;;10.88;;
37284;SDS011;23172;53.550;9.964;2022-10-17T16:10:28;8.23;;;7.53;;
37284;SDS011;23172;53.550;9.964;2022-10-17T16:15:29;11.98;;;10.88;;
37284;SDS011;23172;53.550;9.964;2022-10-17T16:20:32;13.70;;;12.38;;
37284;SDS011;23172;53.550;9.964;2022-10-17T16:25:34;13.50;;;12.30;;
37284;SDS011;23172;53.550;9.964;2022-10-17T16:30:39;12.53;;;11.40;;
37284;SDS011;23172;53.550;9.964;2022-10-17T16:35:46;14.23;;;12.93;;
37284;SDS011;23172;53.550;9.964;2022-10-17T16:40:48;13.35;;;11.75;;
37284;SDS011;23172;53.550;9.964;2022-10-17T16:45:50;11.95;;;10.88;;
37284;SDS011;23172;53.550;9.964;2022-10-17T16:50:53;12.67;;;11.47;;
37284;SDS011;23172;53.550;9.964;2022-10-17T16:55:58;12.75;;;11.55;;
37284;SDS011;23172;53.550;9.964;2022-10-17T17:01:01;12.47;;;11.33;;
37284;SDS011;23172;53.550;9.964;2022-10-17T17:06:06;15.27;;;13.90;;
37284;SDS011;23172;53.550;9.964;2022-10-17T17:11:10;15.00;;;13.60;;
37284;SDS011;23172;53.550;9.964;2022-10-17T17:16:13;13.43;;;12.33;;
37284;SDS011;23172;53.550;9.964;2022-10-17T17:21:17;12.73;;;11.63;;
37284;SDS011;23172;53.550;9.964;2022-10-17T17:26:20;13.50;;;12.40;;
37284;SDS011;23172;53.550;9.964;2022-10-17T17:31:26;15.50;;;14.10;;
37284;SDS011;23172;53.550;9.964;2022-10-17T17:36:33;13.48;;;12.35;;
37284;SDS011;23172;53.550;9.964;2022-10-17T17:41:36;17.27;;;15.77;;
37284;SDS011;23172;53.550;9.964;2022-10-17T17:46:39;15.68;;;14.27;;
37284;SDS011;23172;53.550;9.964;2022-10-17T17:51:43;17.77;;;16.20;;
37284;SDS011;23172;53.550;9.964;2022-10-17T17:56:46;13.63;;;12.52;;
37284;SDS011;23172;53.550;9.964;2022-10-17T18:01:47;16.67;;;15.18;;
37284;SDS011;23172;53.550;9.964;2022-10-17T18:06:50;13.90;;;12.63;;
37284;SDS011;23172;53.550;9.964;2022-10-17T18:11:52;14.95;;;13.65;;
37284;SDS011;23172;53.550;9.964;2022-10-17T18:16:54;15.25;;;13.95;;
37284;SDS011;23172;53.550;9.964;2022-10-17T18:21:57;15.57;;;14.27;;
37284;SDS011;23172;53.550;9.964;2022-10-17T18:26:59;16.20;;;14.80;;
37284;SDS011;23172;53.550;9.964;2022-10-17T18:32:03;18.97;;;17.20;;
37284;SDS011;23172;53.550;9.964;2022-10-17T18:37:10;20.83;;;19.03;;
37284;SDS011;23172;53.550;9.964;2022-10-17T18:42:12;18.45;;;16.63;;
37284;SDS011;23172;53.550;9.964;2022-10-17T18:47:17;16.35;;;14.95;;
37284;SDS011;23172;53.550;9.964;2022-10-17T18:52:27;17.13;;;15.55;;
37284;SDS011;23172;53.550;9.964;2022-10-17T18:57:34;18.73;;;16.95;;
37284;SDS011;23172;53.550;9.964;2022-10-17T19:02:36;15.33;;;14.00;;
37284;SDS011;23172;53.550;9.964;2022-10-17T19:07:44;15.40;;;14.10;;
37284;SDS011;23172;53.550;9.964;2022-10-17T19:12:46;14.00;;;12.90;;
37284;SDS011;23172;53.550;9.964;2022-10-17T19:17:48;13.38;;;12.27;;
37284;SDS011;23172;53.550;9.964;2022-10-17T19:22:55;12.20;;;11.20;;
37284;SDS011;23172;53.550;9.964;2022-10-17T19:27:57;13.07;;;11.98;;
37284;SDS011;23172;53.550;9.964;2022-10-17T19:33:05;10.75;;;9.85;;
37284;SDS011;23172;53.550;9.964;2022-10-17T19:43:30;10.47;;;9.57;;
37284;SDS011;23172;53.550;9.964;2022-10-17T19:48:35;7.37;;;6.70;;
37284;SDS011;23172;53.550;9.964;2022-10-17T19:53:43;6.37;;;5.77;;
37284;SDS011;23172;53.550;9.964;2022-10-17T19:58:45;6.60;;;6.00;;
37284;SDS011;23172;53.550;9.964;2022-10-17T20:03:47;6.43;;;5.93;;
37284;SDS011;23172;53.550;9.964;2022-10-17T20:08:51;9.70;;;6.97;;
37284;SDS011;23172;53.550;9.964;2022-10-17T20:13:55;4.67;;;4.27;;
37284;SDS011;23172;53.550;9.964;2022-10-17T20:19:00;4.63;;;4.22;;
37284;SDS011;23172;53.550;9.964;2022-10-17T20:24:07;4.70;;;4.37;;
37284;SDS011;23172;53.550;9.964;2022-10-17T20:29:13;7.95;;;7.25;;
37284;SDS011;23172;53.550;9.964;2022-10-17T20:34:16;8.50;;;7.70;;
37284;SDS011;23172;53.550;9.964;2022-10-17T20:39:20;5.93;;;5.43;;
37284;SDS011;23172;53.550;9.964;2022-10-17T20:44:22;4.75;;;4.35;;
37284;SDS011;23172;53.550;9.964;2022-10-17T20:49:24;4.65;;;4.30;;
37284;SDS011;23172;53.550;9.964;2022-10-17T20:54:27;7.45;;;6.75;;
37284;SDS011;23172;53.550;9.964;2022-10-17T20:59:29;7.20;;;6.53;;
37284;SDS011;23172;53.550;9.964;2022-10-17T21:04:33;4.90;;;4.40;;
37284;SDS011;23172;53.550;9.964;2022-10-17T21:09:36;4.25;;;3.85;;
37284;SDS011;23172;53.550;9.964;2022-10-17T21:14:38;3.80;;;3.50;;
37284;SDS011;23172;53.550;9.964;2022-10-17T21:19:39;5.20;;;4.70;;
37284;SDS011;23172;53.550;9.964;2022-10-17T21:24:42;5.75;;;5.25;;
37284;SDS011;23172;53.550;9.964;2022-10-17T21:29:44;6.18;;;4.45;;
37284;SDS011;23172;53.550;9.964;2022-10-17T21:34:47;6.17;;;5.67;;
37284;SDS011;23172;53.550;9.964;2022-10-17T21:39:50;6.10;;;5.50;;
37284;SDS011;23172;53.550;9.964;2022-10-17T21:44:52;5.73;;;5.23;;
37284;SDS011;23172;53.550;9.964;2022-10-17T21:49:53;6.37;;;5.87;;
37284;SDS011;23172;53.550;9.964;2022-10-17T21:54:56;7.03;;;6.32;;
37284;SDS011;23172;53.550;9.964;2022-10-17T21:59:58;8.03;;;7.33;;
37284;SDS011;23172;53.550;9.964;2022-10-17T22:05:00;7.90;;;7.10;;
37284;SDS011;23172;53.550;9.964;2022-10-17T22:10:03;7.45;;;6.85;;
37284;SDS011;23172;53.550;9.964;2022-10-17T22:15:06;8.52;;;7.72;;
37284;SDS011;23172;53.550;9.964;2022-10-17T22:20:08;7.32;;;6.63;;
37284;SDS011;23172;53.550;9.964;2022-10-17T22:25:11;8.80;;;7.95;;
37284;SDS011;23172;53.550;9.964;2022-10-17T22:30:13;8.73;;;7.93;;
37284;SDS011;23172;53.550;9.964;2022-10-17T22:35:15;9.02;;;7.43;;
37284;SDS011;23172;53.550;9.964;2022-10-17T22:40:18;9.93;;;8.88;;
37284;SDS011;23172;53.550;9.964;2022-10-17T22:45:20;8.57;;;7.67;;
37284;SDS011;23172;53.550;9.964;2022-10-17T22:50:22;8.73;;;7.83;;
37284;SDS011;23172;53.550;9.964;2022-10-17T22:55:26;10.68;;;9.57;;
37284;SDS011;23172;53.550;9.964;2022-10-17T23:00:28;8.70;;;7.80;;
37284;SDS011;23172;53.550;9.964;2022-10-17T23:05:30;8.70;;;7.80;;
37284;SDS011;23172;53.550;9.964;2022-10-17T23:10:33;8.93;;;8.07;;
37284;SDS011;23172;53.550;9.964;2022-10-17T23:15:35;8.77;;;7.87;;
37284;SDS011;23172;53.550;9.964;2022-10-17T23:20:37;8.50;;;7.60;;
37284;SDS011;23172;53.550;9.964;2022-10-17T23:25:40;9.03;;;8.13;;
37284;SDS011;23172;53.550;9.964;2022-10-17T23:30:42;12.57;;;10.88;;
37284;SDS011;23172;53.550;9.964;2022-10-17T23:35:47;10.23;;;9.00;;
37284;SDS011;23172;53.550;9.964;2022-10-17T23:40:50;10.77;;;9.03;;
37284;SDS011;23172;53.550;9.964;2022-10-17T23:45:52;9.70;;;8.77;;
37284;SDS011;23172;53.550;9.964;2022-10-17T23:50:53;10.37;;;8.50;;
37284;SDS011;23172;53.550;9.964;2022-10-17T23:55:57;9.43;;;8.60;;
